createdAt,value
2023-05-18T00:01:41.126Z,82.16
2023-05-18T00:04:08.261Z,82.14
2023-05-18T00:06:34.902Z,82.11
2023-05-18T00:09:01.413Z,82.52
2023-05-18T00:11:27.911Z,82.45
2023-05-18T00:13:54.447Z,82.16
2023-05-18T00:16:27.417Z,82.15
2023-05-18T00:18:54.783Z,82.04
2023-05-18T00:21:24.988Z,82.33
2023-05-18T00:23:54.627Z,82.29
2023-05-18T00:26:23.288Z,82.16
2023-05-18T00:28:52.632Z,82.28
2023-05-18T00:31:19.235Z,82.42
2023-05-18T00:33:45.855Z,82.59
2023-05-18T00:36:12.379Z,82.82
2023-05-18T00:38:38.899Z,82.78
2023-05-18T00:41:05.512Z,82.57
2023-05-18T00:43:32.055Z,82.86
2023-05-18T00:45:58.764Z,83.11
2023-05-18T00:48:26.716Z,82.62
2023-05-18T00:50:54.036Z,82.95
2023-05-18T00:53:23.369Z,83.02
2023-05-18T00:55:49.961Z,82.81
2023-05-18T00:58:17.171Z,83.18
2023-05-18T01:00:47.271Z,83.13
2023-05-18T01:03:15.394Z,83.27
2023-05-18T01:05:47.621Z,83.47
2023-05-18T01:08:17.832Z,83.41
2023-05-18T01:10:50.755Z,83.54
2023-05-18T01:13:31.111Z,83.21
2023-05-18T01:16:02.322Z,83.47
2023-05-18T01:18:38.291Z,83.44
2023-05-18T01:21:31.635Z,83.25
2023-05-18T01:24:25.861Z,83.19
2023-05-18T01:26:57.619Z,83.70
2023-05-18T01:29:29.324Z,83.93
2023-05-18T01:31:55.899Z,84.02
2023-05-18T01:34:22.515Z,84.61
2023-05-18T01:36:49.075Z,84.45
2023-05-18T01:39:16.268Z,84.45
2023-05-18T01:41:56.270Z,84.21
2023-05-18T01:44:38.925Z,84.33
2023-05-18T01:47:16.795Z,84.27
2023-05-18T01:49:51.523Z,84.38
2023-05-18T01:52:37.984Z,84.72
2023-05-18T01:55:06.528Z,84.05
2023-05-18T01:57:35.162Z,83.87
2023-05-18T02:00:04.654Z,83.46
2023-05-18T02:02:31.359Z,83.63
2023-05-18T02:04:57.896Z,83.63
2023-05-18T02:07:24.377Z,84.10
2023-05-18T02:09:51.018Z,84.10
2023-05-18T02:12:17.499Z,83.86
2023-05-18T02:14:44.024Z,84.04
2023-05-18T02:17:11.607Z,84.27
2023-05-18T02:19:38.716Z,84.51
2023-05-18T02:22:09.637Z,84.37
2023-05-18T02:24:36.215Z,84.09
2023-05-18T02:27:02.759Z,84.45
2023-05-18T02:29:32.451Z,84.91
2023-05-18T02:31:59.084Z,84.99
2023-05-18T02:34:27.431Z,84.64
2023-05-18T02:36:57.815Z,84.44
2023-05-18T02:39:27.932Z,84.71
2023-05-18T02:41:54.542Z,85.03
2023-05-18T02:44:21.722Z,84.54
2023-05-18T02:46:48.309Z,84.85
2023-05-18T02:49:14.847Z,84.79
2023-05-18T02:51:44.804Z,85.27
2023-05-18T02:54:11.447Z,85.15
2023-05-18T02:56:38.528Z,84.87
2023-05-18T02:59:07.932Z,84.74
2023-05-18T03:01:37.231Z,84.86
2023-05-18T03:04:06.696Z,84.99
2023-05-18T03:06:33.393Z,84.66
2023-05-18T03:08:59.966Z,84.32
2023-05-18T03:11:26.536Z,84.28
2023-05-18T03:13:53.123Z,84.69
2023-05-18T03:16:19.833Z,84.88
2023-05-18T03:18:46.885Z,85.21
2023-05-18T03:21:16.716Z,85.46
2023-05-18T03:23:43.251Z,85.63
2023-05-18T03:26:11.460Z,85.54
2023-05-18T03:28:38.715Z,85.77
2023-05-18T03:31:05.710Z,85.61
2023-05-18T03:33:32.363Z,85.68
2023-05-18T03:36:03.548Z,86.02
2023-05-18T03:38:33.089Z,86.28
2023-05-18T03:41:02.495Z,86.34
2023-05-18T03:43:32.367Z,86.22
2023-05-18T03:45:58.962Z,86.01
2023-05-18T03:48:27.232Z,86.13
2023-05-18T03:50:53.753Z,86.29
2023-05-18T03:53:21.568Z,86.23
2023-05-18T03:55:51.714Z,85.90
2023-05-18T03:58:21.137Z,86.04
2023-05-18T04:00:49.464Z,86.20
2023-05-18T04:03:21.548Z,86.08
2023-05-18T04:05:49.699Z,85.94
2023-05-18T04:08:18.056Z,86.08
2023-05-18T04:10:45.541Z,86.58
2023-05-18T04:13:12.425Z,86.33
2023-05-18T04:15:39.000Z,86.33
2023-05-18T04:18:05.666Z,86.39
2023-05-18T04:20:32.382Z,86.67
2023-05-18T04:22:59.071Z,86.74
2023-05-18T04:25:28.063Z,86.70
2023-05-18T04:27:56.112Z,86.88
2023-05-18T04:30:23.410Z,86.84
2023-05-18T04:32:51.091Z,87.07
2023-05-18T04:35:18.598Z,87.95
2023-05-18T04:37:45.315Z,88.49
2023-05-18T04:40:17.523Z,89.68
2023-05-18T04:42:48.443Z,89.58
2023-05-18T04:45:17.167Z,89.50
2023-05-18T04:47:46.857Z,89.48
2023-05-18T04:50:16.047Z,90.15
2023-05-18T04:52:48.455Z,90.32
2023-05-18T04:55:20.068Z,89.89
2023-05-18T04:57:47.636Z,89.78
2023-05-18T05:00:15.054Z,90.04
2023-05-18T05:02:41.617Z,90.10
2023-05-18T05:05:08.792Z,89.81
2023-05-18T05:07:35.349Z,90.06
2023-05-18T05:10:02.270Z,89.96
2023-05-18T05:12:28.884Z,89.62
2023-05-18T05:14:55.594Z,89.22
2023-05-18T05:17:24.140Z,89.55
2023-05-18T05:19:53.678Z,89.92
2023-05-18T05:22:20.435Z,89.74
2023-05-18T05:24:47.073Z,89.10
2023-05-18T05:27:13.644Z,89.33
2023-05-18T05:29:40.212Z,88.40
2023-05-18T05:32:07.273Z,88.83
2023-05-18T05:34:33.780Z,88.76
2023-05-18T05:37:00.271Z,88.88
2023-05-18T05:39:26.817Z,88.79
2023-05-18T05:41:53.343Z,88.76
2023-05-18T05:44:19.830Z,88.52
2023-05-18T05:46:46.420Z,88.45
2023-05-18T05:49:12.922Z,88.46
2023-05-18T05:51:39.490Z,87.65
2023-05-18T05:54:06.088Z,88.06
2023-05-18T05:56:32.622Z,88.16
2023-05-18T05:58:59.521Z,87.44
2023-05-18T06:01:26.151Z,87.15
2023-05-18T06:03:52.698Z,87.48
2023-05-18T06:06:19.279Z,87.77
2023-05-18T06:08:45.770Z,87.40
2023-05-18T06:11:12.806Z,87.39
2023-05-18T06:13:39.432Z,86.63
2023-05-18T06:16:06.083Z,85.67
2023-05-18T06:18:32.689Z,86.22
2023-05-18T06:20:59.258Z,86.69
2023-05-18T06:23:26.154Z,88.01
2023-05-18T06:25:55.209Z,88.62
2023-05-18T06:28:21.977Z,88.75
2023-05-18T06:30:48.656Z,89.10
2023-05-18T06:33:15.228Z,88.85
2023-05-18T06:35:42.234Z,89.75
2023-05-18T06:38:08.880Z,89.82
2023-05-18T06:40:35.595Z,88.36
2023-05-18T06:43:02.282Z,88.32
2023-05-18T06:45:29.024Z,86.89
2023-05-18T06:47:55.949Z,86.19
2023-05-18T06:50:23.020Z,85.90
2023-05-18T06:52:49.604Z,85.23
2023-05-18T06:55:16.201Z,84.94
2023-05-18T06:57:42.966Z,84.55
2023-05-18T07:00:12.385Z,83.29
2023-05-18T07:02:39.939Z,82.37
2023-05-18T07:05:09.057Z,82.11
2023-05-18T07:07:37.680Z,82.01
2023-05-18T07:10:04.903Z,82.18
2023-05-18T07:12:31.503Z,81.58
2023-05-18T07:14:58.031Z,80.07
2023-05-18T07:17:24.614Z,80.60
2023-05-18T07:19:51.142Z,79.75
2023-05-18T07:22:17.698Z,81.22
2023-05-18T07:24:44.227Z,80.73
2023-05-18T07:27:11.037Z,81.35
2023-05-18T07:29:37.687Z,80.93
2023-05-18T07:32:04.544Z,81.75
2023-05-18T07:34:31.415Z,82.79
2023-05-18T07:36:58.236Z,82.16
2023-05-18T07:39:28.836Z,81.16
2023-05-18T07:41:56.396Z,80.37
2023-05-18T07:44:22.982Z,79.87
2023-05-18T07:46:49.689Z,79.90
2023-05-18T07:49:16.333Z,81.70
2023-05-18T07:51:42.851Z,80.18
2023-05-18T07:54:09.386Z,79.93
2023-05-18T07:56:36.115Z,78.56
2023-05-18T07:59:02.975Z,77.70
2023-05-18T08:01:30.348Z,75.44
2023-05-18T08:03:57.103Z,75.89
2023-05-18T08:06:24.088Z,74.37
2023-05-18T08:08:50.693Z,73.51
2023-05-18T08:11:17.319Z,73.83
2023-05-18T08:13:43.933Z,74.59
2023-05-18T08:16:12.349Z,74.82
2023-05-18T08:18:39.471Z,75.05
2023-05-18T08:21:09.382Z,75.09
2023-05-18T08:23:36.633Z,73.13
2023-05-18T08:26:03.653Z,74.39
2023-05-18T08:28:31.421Z,73.13
2023-05-18T08:30:58.440Z,72.67
2023-05-18T08:33:25.770Z,73.24
2023-05-18T08:35:52.696Z,72.14
2023-05-18T08:38:19.363Z,73.27
2023-05-18T08:41:11.240Z,70.67
2023-05-18T08:43:40.666Z,71.77
2023-05-18T08:46:26.371Z,70.50
2023-05-18T08:48:54.909Z,71.66
2023-05-18T08:51:29.856Z,70.67
2023-05-18T08:53:57.149Z,68.43
2023-05-18T08:56:25.228Z,68.87
2023-05-18T08:58:55.714Z,67.58
2023-05-18T09:01:28.372Z,67.04
2023-05-18T09:04:00.691Z,66.45
2023-05-18T09:06:28.542Z,67.07
2023-05-18T09:08:58.232Z,68.95
2023-05-18T09:11:26.959Z,66.82
2023-05-18T09:13:54.804Z,66.10
2023-05-18T09:16:21.462Z,65.26
2023-05-18T09:18:48.063Z,65.81
2023-05-18T09:21:14.648Z,69.99
2023-05-18T09:23:41.576Z,64.87
2023-05-18T09:26:11.522Z,66.56
2023-05-18T09:28:39.468Z,67.65
2023-05-18T09:31:09.084Z,68.09
2023-05-18T09:33:37.553Z,67.89
2023-05-18T09:36:06.066Z,66.22
2023-05-18T09:38:45.734Z,64.82
2023-05-18T09:41:17.507Z,64.91
2023-05-18T09:43:53.297Z,65.58
2023-05-18T09:46:21.015Z,66.40
2023-05-18T09:48:51.452Z,67.26
2023-05-18T09:51:18.342Z,65.03
2023-05-18T09:53:49.716Z,67.98
2023-05-18T09:56:17.916Z,65.63
2023-05-18T09:58:46.071Z,63.66
2023-05-18T10:01:12.597Z,64.50
2023-05-18T10:03:39.408Z,66.14
2023-05-18T10:06:08.210Z,62.88
2023-05-18T10:08:36.054Z,65.59
2023-05-18T10:11:03.321Z,65.07
2023-05-18T10:13:31.796Z,61.72
2023-05-18T10:16:07.517Z,62.53
2023-05-18T10:18:38.710Z,62.52
2023-05-18T10:21:09.762Z,64.03
2023-05-18T10:23:37.243Z,62.72
2023-05-18T10:26:07.758Z,64.95
2023-05-18T10:28:42.364Z,63.26
2023-05-18T10:31:09.460Z,62.47
2023-05-18T10:33:37.947Z,63.70
2023-05-18T10:36:05.508Z,64.31
2023-05-18T10:38:34.569Z,62.79
2023-05-18T10:41:01.668Z,63.64
2023-05-18T10:43:28.947Z,61.75
2023-05-18T10:46:09.231Z,60.80
2023-05-18T10:48:39.198Z,59.95
2023-05-18T10:51:07.961Z,61.95
2023-05-18T10:53:34.804Z,61.72
2023-05-18T10:56:01.781Z,59.40
2023-05-18T10:58:30.742Z,61.33
2023-05-18T11:00:59.374Z,60.97
2023-05-18T11:03:27.410Z,59.83
2023-05-18T11:06:10.256Z,59.71
2023-05-18T11:08:47.886Z,58.91
2023-05-18T11:11:19.869Z,58.91
2023-05-18T11:13:51.366Z,59.17
2023-05-18T11:16:19.502Z,59.85
2023-05-18T11:18:50.872Z,58.40
2023-05-18T11:21:32.611Z,57.53
2023-05-18T11:24:17.722Z,56.77
2023-05-18T11:26:49.926Z,60.32
2023-05-18T11:29:46.495Z,60.16
2023-05-18T11:32:32.587Z,57.44
2023-05-18T11:34:59.910Z,55.57
2023-05-18T11:37:55.855Z,57.31
2023-05-18T11:40:44.792Z,56.98
2023-05-18T11:43:27.690Z,58.83
2023-05-18T11:45:58.948Z,56.87
2023-05-18T11:48:27.493Z,57.78
2023-05-18T11:50:55.008Z,60.36
2023-05-18T11:53:26.384Z,60.38
2023-05-18T11:55:54.728Z,61.32
2023-05-18T11:58:26.293Z,61.78
2023-05-18T12:00:55.879Z,63.23
2023-05-18T12:03:26.653Z,61.08
2023-05-18T12:05:54.124Z,61.42
2023-05-18T12:08:21.805Z,60.95
2023-05-18T12:10:51.116Z,61.46
2023-05-18T12:13:17.955Z,62.71
2023-05-18T12:15:45.605Z,61.57
2023-05-18T12:18:12.565Z,61.60
2023-05-18T12:20:40.818Z,60.90
2023-05-18T12:23:07.519Z,58.90
2023-05-18T12:25:34.209Z,60.51
2023-05-18T12:28:02.090Z,59.88
2023-05-18T12:30:35.076Z,58.87
2023-05-18T12:33:03.202Z,63.10
2023-05-18T12:35:31.146Z,61.27
2023-05-18T12:38:00.815Z,60.45
2023-05-18T12:40:28.554Z,59.49
2023-05-18T12:42:59.531Z,59.77
2023-05-18T12:45:28.454Z,60.33
2023-05-18T12:47:56.212Z,55.97
2023-05-18T12:50:26.452Z,55.64
2023-05-18T12:52:55.287Z,57.59
2023-05-18T12:55:22.706Z,56.44
2023-05-18T12:58:18.102Z,57.98
2023-05-18T13:00:49.180Z,58.38
2023-05-18T13:03:22.206Z,57.72
2023-05-18T13:06:12.365Z,58.10
2023-05-18T13:08:39.023Z,57.25
2023-05-18T13:11:13.796Z,55.92
2023-05-18T13:14:05.041Z,55.92
2023-05-18T13:16:34.648Z,55.06
2023-05-18T13:19:04.355Z,57.57
2023-05-18T13:21:31.097Z,57.04
2023-05-18T13:23:57.825Z,56.93
2023-05-18T13:26:28.788Z,57.34
2023-05-18T13:28:56.549Z,58.43
2023-05-18T13:31:25.180Z,58.84
2023-05-18T13:33:52.114Z,58.21
2023-05-18T13:36:19.368Z,56.64
2023-05-18T13:38:46.060Z,58.95
2023-05-18T13:41:14.969Z,59.07
2023-05-18T13:43:42.672Z,56.52
2023-05-18T13:46:12.032Z,56.56
2023-05-18T13:48:38.675Z,56.24
2023-05-18T13:51:05.272Z,57.76
2023-05-18T13:53:31.884Z,58.70
2023-05-18T13:55:58.406Z,57.62
2023-05-18T13:58:24.985Z,56.58
2023-05-18T14:00:53.729Z,56.59
2023-05-18T14:03:20.460Z,57.18
2023-05-18T14:05:47.115Z,57.36
2023-05-18T14:08:13.677Z,56.45
2023-05-18T14:10:40.459Z,55.91
2023-05-18T14:13:08.474Z,56.87
2023-05-18T14:15:35.019Z,56.94
2023-05-18T14:18:01.620Z,56.78
2023-05-18T14:20:29.335Z,56.26
2023-05-18T14:22:56.371Z,56.23
2023-05-18T14:25:22.848Z,56.20
2023-05-18T14:27:49.402Z,57.24
2023-05-18T14:30:16.076Z,57.68
2023-05-18T14:32:42.686Z,58.06
2023-05-18T14:35:09.425Z,56.12
2023-05-18T14:37:35.992Z,57.18
2023-05-18T14:40:02.519Z,56.35
2023-05-18T14:42:29.597Z,55.29
2023-05-18T14:44:56.144Z,56.50
2023-05-18T14:47:23.800Z,55.96
2023-05-18T14:49:50.411Z,56.92
2023-05-18T14:52:16.964Z,57.11
2023-05-18T14:54:43.556Z,57.17
2023-05-18T14:57:10.344Z,57.93
2023-05-18T14:59:36.957Z,58.16
2023-05-18T15:02:03.565Z,56.96
2023-05-18T15:04:30.139Z,58.01
2023-05-18T15:06:57.131Z,58.36
2023-05-18T15:09:25.288Z,58.13
2023-05-18T15:11:53.234Z,57.59
2023-05-18T15:14:20.029Z,57.38
2023-05-18T15:16:46.842Z,57.12
2023-05-18T15:19:13.643Z,57.14
2023-05-18T15:21:40.325Z,59.79
2023-05-18T15:24:07.313Z,59.38
2023-05-18T15:26:34.174Z,58.62
2023-05-18T15:29:00.693Z,57.32
2023-05-18T15:31:27.251Z,57.70
2023-05-18T15:33:53.802Z,57.59
2023-05-18T15:36:21.659Z,59.68
2023-05-18T15:38:48.218Z,60.26
2023-05-18T15:41:14.867Z,57.95
2023-05-18T15:43:41.831Z,58.63
2023-05-18T15:46:08.466Z,58.82
2023-05-18T15:48:35.033Z,59.01
2023-05-18T15:51:01.636Z,57.19
2023-05-18T15:53:28.222Z,58.51
2023-05-18T15:55:58.759Z,60.01
2023-05-18T15:58:26.466Z,57.51
2023-05-18T16:00:57.137Z,58.31
2023-05-18T16:03:23.877Z,59.36
2023-05-18T16:05:50.576Z,58.06
2023-05-18T16:08:17.101Z,59.12
2023-05-18T16:10:43.625Z,58.05
2023-05-18T16:13:10.115Z,57.78
2023-05-18T16:15:36.961Z,59.15
2023-05-18T16:18:03.849Z,57.67
2023-05-18T16:20:30.784Z,56.18
2023-05-18T16:22:58.322Z,57.72
2023-05-18T16:25:25.296Z,56.84
2023-05-18T16:27:51.997Z,58.27
2023-05-18T16:30:18.547Z,58.54
2023-05-18T16:32:45.223Z,59.29
2023-05-18T16:35:12.296Z,59.93
2023-05-18T16:37:39.147Z,59.66
2023-05-18T16:40:06.725Z,60.31
2023-05-18T16:42:33.422Z,59.83
2023-05-18T16:44:59.974Z,59.75
2023-05-18T16:47:27.693Z,59.80
2023-05-18T16:49:54.578Z,58.30
2023-05-18T16:52:21.573Z,59.05
2023-05-18T16:54:48.296Z,59.20
2023-05-18T16:57:15.187Z,59.49
2023-05-18T16:59:44.988Z,60.20
2023-05-18T17:02:13.980Z,59.67
2023-05-18T17:04:41.402Z,60.57
2023-05-18T17:07:09.908Z,61.81
2023-05-18T17:09:40.116Z,61.66
2023-05-18T17:12:07.828Z,62.18
2023-05-18T17:14:34.425Z,61.67
2023-05-18T17:17:01.130Z,62.15
2023-05-18T17:19:27.676Z,62.63
2023-05-18T17:21:54.473Z,61.81
2023-05-18T17:24:20.991Z,61.73
2023-05-18T17:26:47.492Z,61.77
2023-05-18T17:29:17.129Z,61.07
2023-05-18T17:31:45.789Z,61.46
2023-05-18T17:34:12.418Z,62.09
2023-05-18T17:36:39.085Z,63.22
2023-05-18T17:39:05.638Z,63.71
2023-05-18T17:41:33.154Z,64.19
2023-05-18T17:44:02.321Z,64.67
2023-05-18T17:46:29.112Z,63.21
2023-05-18T17:48:55.821Z,63.03
2023-05-18T17:51:24.714Z,66.10
2023-05-18T17:53:51.633Z,65.75
2023-05-18T17:56:18.384Z,65.71
2023-05-18T17:58:45.012Z,64.88
2023-05-18T18:01:12.145Z,65.64
2023-05-18T18:03:39.014Z,67.82
2023-05-18T18:06:05.838Z,67.41
2023-05-18T18:08:32.407Z,68.05
2023-05-18T18:10:59.031Z,67.91
2023-05-18T18:13:26.117Z,71.65
2023-05-18T18:15:52.639Z,68.90
2023-05-18T18:18:19.253Z,71.06
2023-05-18T18:20:45.915Z,72.41
2023-05-18T18:23:12.438Z,74.42
2023-05-18T18:25:39.034Z,74.33
2023-05-18T18:28:05.579Z,74.97
2023-05-18T18:30:32.393Z,74.06
2023-05-18T18:32:59.300Z,74.36
2023-05-18T18:35:26.114Z,73.68
2023-05-18T18:37:52.624Z,75.85
2023-05-18T18:40:19.225Z,77.17
2023-05-18T18:42:47.262Z,78.49
2023-05-18T18:45:13.947Z,77.96
2023-05-18T18:47:40.515Z,77.45
2023-05-18T18:50:07.591Z,77.70
2023-05-18T18:52:34.108Z,76.61
2023-05-18T18:55:01.249Z,77.28
2023-05-18T18:57:27.753Z,76.60
2023-05-18T18:59:56.991Z,78.12
2023-05-18T19:02:23.673Z,79.23
2023-05-18T19:04:50.335Z,79.43
2023-05-18T19:07:16.891Z,79.64
2023-05-18T19:09:43.490Z,79.19
2023-05-18T19:12:10.486Z,80.59
2023-05-18T19:14:37.703Z,79.63
2023-05-18T19:17:04.564Z,77.21
2023-05-18T19:19:32.605Z,77.07
2023-05-18T19:21:59.228Z,77.08
2023-05-18T19:24:25.784Z,78.62
2023-05-18T19:26:55.012Z,79.21
2023-05-18T19:29:21.617Z,79.39
2023-05-18T19:31:48.204Z,79.17
2023-05-18T19:34:14.700Z,78.31
2023-05-18T19:36:44.504Z,80.07
2023-05-18T19:39:10.987Z,80.10
2023-05-18T19:41:38.135Z,79.99
2023-05-18T19:44:04.627Z,80.15
2023-05-18T19:46:31.407Z,80.70
2023-05-18T19:48:57.930Z,79.76
2023-05-18T19:51:27.143Z,80.05
2023-05-18T19:53:53.621Z,79.28
2023-05-18T19:56:22.144Z,79.58
2023-05-18T19:58:49.413Z,80.00
2023-05-18T20:01:19.183Z,79.74
2023-05-18T20:03:47.121Z,80.14
2023-05-18T20:06:16.992Z,80.87
2023-05-18T20:08:43.602Z,82.24
2023-05-18T20:11:16.480Z,82.33
2023-05-18T20:13:43.774Z,83.22
2023-05-18T20:16:10.347Z,83.80
2023-05-18T20:18:37.480Z,84.28
2023-05-18T20:21:04.179Z,83.44
2023-05-18T20:23:30.743Z,83.60
2023-05-18T20:25:57.326Z,84.35
2023-05-18T20:28:26.132Z,83.62
2023-05-18T20:30:52.658Z,83.38
2023-05-18T20:33:19.364Z,83.85
2023-05-18T20:35:46.057Z,85.25
2023-05-18T20:38:16.141Z,85.65
2023-05-18T20:40:46.294Z,85.50
2023-05-18T20:43:18.083Z,86.06
2023-05-18T20:45:52.494Z,86.21
2023-05-18T20:48:24.946Z,86.71
2023-05-18T20:50:52.282Z,86.38
2023-05-18T20:53:19.603Z,86.33
2023-05-18T20:55:49.843Z,85.49
2023-05-18T20:58:19.858Z,85.23
2023-05-18T21:00:46.655Z,85.70
2023-05-18T21:03:21.655Z,86.05
2023-05-18T21:05:49.868Z,85.32
2023-05-18T21:08:21.327Z,84.71
2023-05-18T21:10:47.812Z,84.63
2023-05-18T21:13:15.056Z,86.89
2023-05-18T21:15:41.689Z,86.41
2023-05-18T21:18:08.432Z,85.45
2023-05-18T21:20:34.975Z,85.81
2023-05-18T21:23:01.508Z,86.48
2023-05-18T21:25:31.132Z,86.79
2023-05-18T21:28:01.068Z,86.39
2023-05-18T21:30:27.608Z,85.82
2023-05-18T21:32:54.493Z,85.24
2023-05-18T21:35:21.065Z,85.31
2023-05-18T21:37:51.068Z,84.09
2023-05-18T21:40:20.941Z,83.64
2023-05-18T21:42:47.511Z,83.55
2023-05-18T21:45:14.567Z,83.01
2023-05-18T21:47:41.153Z,82.01
2023-05-18T21:50:11.986Z,81.91
2023-05-18T21:52:38.472Z,82.72
2023-05-18T21:55:05.659Z,82.62
2023-05-18T21:57:33.024Z,82.50
2023-05-18T22:00:02.282Z,82.22
2023-05-18T22:02:28.835Z,81.83
2023-05-18T22:04:55.669Z,82.79
2023-05-18T22:07:22.184Z,82.50
2023-05-18T22:09:50.771Z,83.24
2023-05-18T22:12:17.817Z,82.32
2023-05-18T22:14:44.342Z,83.03
2023-05-18T22:17:10.935Z,82.83
2023-05-18T22:19:37.571Z,83.18
2023-05-18T22:22:04.216Z,83.30
2023-05-18T22:24:34.005Z,83.71
2023-05-18T22:27:05.977Z,83.56
2023-05-18T22:29:32.453Z,83.32
2023-05-18T22:31:59.068Z,82.53
2023-05-18T22:34:25.784Z,82.43
2023-05-18T22:36:52.321Z,82.32
2023-05-18T22:39:19.072Z,83.14
2023-05-18T22:41:45.625Z,84.37
2023-05-18T22:44:12.677Z,86.31
2023-05-18T22:46:42.343Z,87.33
2023-05-18T22:49:08.916Z,88.35
2023-05-18T22:51:38.417Z,88.29
2023-05-18T22:54:05.031Z,87.31
2023-05-18T22:56:31.602Z,87.15
2023-05-18T22:58:58.153Z,86.16
2023-05-18T23:01:24.825Z,85.09
2023-05-18T23:03:51.383Z,84.79
2023-05-18T23:06:22.325Z,84.68
2023-05-18T23:08:53.219Z,84.26
2023-05-18T23:11:19.918Z,84.00
2023-05-18T23:13:46.421Z,84.10
2023-05-18T23:16:13.033Z,84.54
2023-05-18T23:18:39.594Z,85.05
2023-05-18T23:21:14.890Z,84.44
2023-05-18T23:23:45.596Z,84.37
2023-05-18T23:26:12.650Z,84.22
2023-05-18T23:28:39.216Z,84.17
2023-05-18T23:31:05.837Z,84.18
2023-05-18T23:33:32.861Z,83.63
2023-05-18T23:36:03.946Z,83.81
2023-05-18T23:38:35.049Z,83.55
2023-05-18T23:41:03.500Z,83.77
2023-05-18T23:43:30.428Z,83.81
2023-05-18T23:45:59.554Z,83.92
2023-05-18T23:48:38.433Z,84.63
2023-05-18T23:51:05.703Z,84.33
2023-05-18T23:53:34.472Z,84.42
2023-05-18T23:56:06.000Z,84.92
2023-05-18T23:58:32.811Z,84.51
